Time;durP1;ratioP1;P1;durP2;ratioP2;P2;SDS_P1;SDS_P2;PMS_P1;PMS_P2;Temp;Humidity;BMP_temperature;BMP_pressure;BME280_temperature;BME280_humidity;BME280_pressure;Samples;Min_cycle;Max_cycle;Signal;HPM_P1;HPM_P2
2022/10/30 00:00:00;;;;;;;;;;;;;;;13.75;75.74;101149.69;5053793;28;19917;-28
2022/10/30 00:02:25;;;;;;;;;;;;;;;13.71;75.85;101144.44;5055116;28;20424;-27
2022/10/30 00:04:50;;;;;;;;;;;;;;;13.70;75.84;101140.03;5058576;28;20361;-28
2022/10/30 00:07:15;;;;;;;;;;;;;;;13.69;75.86;101143.59;5073625;28;20364;-28
2022/10/30 00:09:41;;;;;;;;;;;;;;;13.67;75.60;101132.13;5054835;28;20412;-28
2022/10/30 00:12:06;;;;;;;;;;;;;;;13.66;75.62;101129.50;5054802;28;20361;-28
2022/10/30 00:14:31;;;;;;;;;;;;;;;13.63;75.71;101138.38;5055336;28;19913;-28
2022/10/30 00:16:56;;;;;;;;;;;;;;;13.61;75.66;101134.88;5074585;28;19926;-28
2022/10/30 00:19:22;;;;;;;;;;;;;;;13.60;75.82;101149.00;5075079;28;19912;-28
2022/10/30 00:21:47;;;;;;;;;;;;;;;13.58;75.66;101137.56;5074559;28;20405;-28
2022/10/30 00:24:12;;;;;;;;;;;;;;;13.56;75.74;101144.66;5063312;28;19925;-28
2022/10/30 00:26:37;;;;;;;;;;;;;;;13.55;75.73;101143.78;5054260;28;19923;-27
2022/10/30 00:29:02;;;;;;;;;;;;;;;13.52;75.57;101133.22;5054672;28;19968;-28
2022/10/30 00:31:28;;;;;;;;;;;;;;;13.51;75.74;101126.19;5054889;28;19913;-28
2022/10/30 00:33:53;;;;;;;;;;;;;;;13.46;75.85;101134.16;5059842;28;19916;-28
2022/10/30 00:36:19;;;;;;;;;;;;;;;13.44;75.68;101130.66;5074369;28;19938;-27
2022/10/30 00:38:44;;;;;;;;;;;;;;;13.45;75.85;101126.22;5066230;28;20277;-28
2022/10/30 00:41:16;;;;;;;;;;;;;;;13.43;75.71;101112.13;5053336;28;19978;-28
2022/10/30 00:43:41;;;;;;;;;;;;;;;13.40;75.81;101106.88;5060730;28;20385;-28
2022/10/30 00:46:27;;;;;;;;;;;;;;;13.38;75.78;101111.31;5074620;28;19916;-28
2022/10/30 00:49:01;;;;;;;;;;;;;;;13.37;75.86;101099.84;5072979;28;19919;-28
2022/10/30 00:51:27;;;;;;;;;;;;;;;13.35;75.79;101105.16;5073878;28;20297;-27
2022/10/30 00:53:52;;;;;;;;;;;;;;;13.34;75.93;101103.41;5066202;28;19917;-28
2022/10/30 00:56:17;;;;;;;;;;;;;;;13.32;75.83;101091.09;5036320;28;19917;-28
2022/10/30 00:58:47;;;;;;;;;;;;;;;13.31;75.80;101099.94;5052901;28;20412;-28
2022/10/30 01:01:14;;;;;;;;;;;;;;;13.28;75.97;101097.31;5052712;28;19920;-28
2022/10/30 01:03:39;;;;;;;;;;;;;;;13.27;75.92;101090.28;5055274;28;19920;-28
2022/10/30 01:06:05;;;;;;;;;;;;;;;13.26;76.02;101078.78;5071197;28;20007;-28
2022/10/30 01:08:31;;;;;;;;;;;;;;;13.25;75.95;101081.47;5069309;28;19920;-28
2022/10/30 01:10:56;;;;;;;;;;;;;;;13.23;75.93;101086.78;5069411;28;19913;-28
2022/10/30 01:13:22;;;;;;;;;;;;;;;13.21;76.04;101089.44;5056994;28;19970;-28
2022/10/30 01:16:06;;;;;;;;;;;;;;;13.20;76.01;101098.28;5072849;28;20339;-27
2022/10/30 01:18:36;;;;;;;;;;;;;;;13.19;75.97;101101.84;5073598;28;19964;-28
2022/10/30 01:21:14;;;;;;;;;;;;;;;13.18;76.01;101101.88;5055395;28;19921;-28
2022/10/30 01:23:58;;;;;;;;;;;;;;;13.16;76.21;101109.84;5068059;28;19921;-28
2022/10/30 01:26:26;;;;;;;;;;;;;;;13.15;76.29;101102.78;5053957;28;20146;-28
2022/10/30 01:29:29;;;;;;;;;;;;;;;13.13;76.41;101099.28;5053500;28;19912;-28
2022/10/30 01:31:58;;;;;;;;;;;;;;;13.11;76.41;101090.50;5031020;28;20016;-28
2022/10/30 01:34:41;;;;;;;;;;;;;;;13.11;76.43;101084.31;5030933;28;19960;-28
2022/10/30 01:37:08;;;;;;;;;;;;;;;13.11;76.37;101089.59;5044217;28;19966;-28
2022/10/30 01:39:34;;;;;;;;;;;;;;;13.10;76.47;101088.72;5052874;28;20020;-28
2022/10/30 01:42:06;;;;;;;;;;;;;;;13.09;76.49;101084.31;5051066;28;19913;-28
2022/10/30 01:44:32;;;;;;;;;;;;;;;13.07;76.35;101081.69;5064256;28;20003;-28
2022/10/30 01:47:19;;;;;;;;;;;;;;;13.07;76.55;101084.34;5072315;28;20015;-27
2022/10/30 01:49:48;;;;;;;;;;;;;;;13.06;76.52;101079.06;5073593;28;19920;-28
2022/10/30 01:52:13;;;;;;;;;;;;;;;13.06;76.66;101082.59;5072096;28;20353;-28
2022/10/30 01:54:57;;;;;;;;;;;;;;;13.05;76.53;101074.66;5061233;28;19963;-28
2022/10/30 01:57:22;;;;;;;;;;;;;;;13.04;76.49;101083.50;5053079;28;19912;-28
2022/10/30 01:59:51;;;;;;;;;;;;;;;13.04;76.51;101086.16;5052579;28;19920;-27
2022/10/30 02:02:17;;;;;;;;;;;;;;;13.03;76.57;101073.78;5052501;28;19960;-28
2022/10/30 02:04:42;;;;;;;;;;;;;;;13.02;76.61;101074.69;5047327;28;20392;-28
2022/10/30 02:07:08;;;;;;;;;;;;;;;13.00;76.45;101074.72;5071454;28;19913;-28
2022/10/30 02:09:33;;;;;;;;;;;;;;;13.00;76.36;101076.50;5059098;28;19923;-28
2022/10/30 02:11:59;;;;;;;;;;;;;;;12.98;76.56;101076.53;5050657;28;19913;-28
2022/10/30 02:14:26;;;;;;;;;;;;;;;12.98;76.38;101079.16;5061120;28;19916;-28
2022/10/30 02:16:52;;;;;;;;;;;;;;;12.98;76.38;101080.94;5071130;28;19917;-28
2022/10/30 02:19:17;;;;;;;;;;;;;;;12.98;76.24;101080.94;5072872;28;19966;-28
2022/10/30 02:21:42;;;;;;;;;;;;;;;12.94;76.35;101073.03;5072472;28;19920;-28
2022/10/30 02:24:07;;;;;;;;;;;;;;;12.93;76.30;101071.28;5065394;28;20369;-28
2022/10/30 02:26:32;;;;;;;;;;;;;;;12.92;76.21;101072.19;5052840;28;19919;-28
2022/10/30 02:28:58;;;;;;;;;;;;;;;12.92;76.22;101063.34;5052426;28;19913;-28
2022/10/30 02:31:23;;;;;;;;;;;;;;;12.92;76.46;101066.00;5052331;28;19912;-28
2022/10/30 02:33:48;;;;;;;;;;;;;;;12.89;76.36;101064.28;5056594;28;20031;-28
2022/10/30 02:36:16;;;;;;;;;;;;;;;12.89;76.20;101058.97;5072373;28;19912;-28
2022/10/30 02:38:42;;;;;;;;;;;;;;;12.87;76.42;101055.47;5070240;28;20003;-28
2022/10/30 02:41:07;;;;;;;;;;;;;;;12.86;76.41;101059.00;5052366;28;19970;-27
2022/10/30 02:43:32;;;;;;;;;;;;;;;12.85;76.31;101057.28;5054366;28;20296;-28
2022/10/30 02:45:58;;;;;;;;;;;;;;;12.84;76.27;101060.81;5069236;28;19916;-28
2022/10/30 02:48:23;;;;;;;;;;;;;;;12.83;76.43;101053.75;5072221;28;19916;-28
2022/10/30 02:50:48;;;;;;;;;;;;;;;12.82;76.47;101052.00;5072044;28;19944;-28
2022/10/30 02:53:13;;;;;;;;;;;;;;;12.82;76.39;101058.19;5072255;28;19912;-28
2022/10/30 02:55:38;;;;;;;;;;;;;;;12.79;76.33;101058.22;5052831;28;19917;-28
2022/10/30 02:58:04;;;;;;;;;;;;;;;12.79;76.33;101052.94;5054802;28;19916;-28
2022/10/30 03:00:29;;;;;;;;;;;;;;;12.79;76.39;101057.34;5072013;28;20261;-28
2022/10/30 03:02:55;;;;;;;;;;;;;;;12.77;76.49;101053.84;5072474;28;19912;-28
2022/10/30 03:05:20;;;;;;;;;;;;;;;12.75;76.33;101059.16;5054047;28;19921;-27
2022/10/30 03:07:47;;;;;;;;;;;;;;;12.75;76.64;101045.03;5059845;28;19923;-27
2022/10/30 03:10:12;;;;;;;;;;;;;;;12.75;76.36;101050.31;5061399;28;19917;-27
2022/10/30 03:12:38;;;;;;;;;;;;;;;12.73;76.35;101049.50;5050822;28;19913;-28
2022/10/30 03:15:03;;;;;;;;;;;;;;;12.72;76.39;101050.34;5052091;28;19917;-27
2022/10/30 03:17:28;;;;;;;;;;;;;;;12.70;76.38;101042.44;5051864;28;19973;-27
2022/10/30 03:19:54;;;;;;;;;;;;;;;12.69;76.27;101048.63;5067196;28;19912;-28
2022/10/30 03:22:19;;;;;;;;;;;;;;;12.67;76.44;101043.34;5051485;28;20050;-28
2022/10/30 03:24:44;;;;;;;;;;;;;;;12.67;76.14;101038.06;5062778;28;19974;-28
2022/10/30 03:27:09;;;;;;;;;;;;;;;12.66;76.32;101046.00;5070382;28;19948;-28
2022/10/30 03:29:34;;;;;;;;;;;;;;;12.64;76.40;101046.03;5071932;28;20384;-27
2022/10/30 03:32:00;;;;;;;;;;;;;;;12.62;76.27;101045.19;5071570;28;20373;-28
2022/10/30 03:34:26;;;;;;;;;;;;;;;12.61;76.44;101054.03;5063202;28;20417;-28
2022/10/30 03:36:51;;;;;;;;;;;;;;;12.60;76.26;101054.91;5052003;28;20058;-28
2022/10/30 03:39:16;;;;;;;;;;;;;;;12.59;76.29;101061.09;5050638;28;20007;-27
2022/10/30 03:41:42;;;;;;;;;;;;;;;12.57;76.37;101049.63;5050886;28;19913;-28
2022/10/30 03:44:07;;;;;;;;;;;;;;;12.58;76.20;101056.72;5051592;28;19936;-28
2022/10/30 03:46:32;;;;;;;;;;;;;;;12.56;76.44;101056.72;5051804;28;20385;-28
2022/10/30 03:48:58;;;;;;;;;;;;;;;12.56;76.35;101055.84;5050490;28;19912;-28
2022/10/30 03:51:23;;;;;;;;;;;;;;;12.54;76.37;101047.06;5051458;28;20412;-28
2022/10/30 03:53:48;;;;;;;;;;;;;;;12.54;76.38;101049.69;5054647;28;19939;-28
2022/10/30 03:56:13;;;;;;;;;;;;;;;12.53;76.48;101051.47;5071766;28;19920;-28
2022/10/30 03:58:39;;;;;;;;;;;;;;;12.52;76.66;101054.13;5070266;28;19913;-27
2022/10/30 04:01:04;;;;;;;;;;;;;;;12.52;76.51;101046.19;5071140;28;19962;-28
2022/10/30 04:03:29;;;;;;;;;;;;;;;12.51;76.51;101050.59;5057562;28;20344;-28
2022/10/30 04:05:55;;;;;;;;;;;;;;;12.51;76.61;101044.44;5051563;28;19913;-28
2022/10/30 04:08:20;;;;;;;;;;;;;;;12.49;76.71;101041.81;5051510;28;20278;-28
2022/10/30 04:10:45;;;;;;;;;;;;;;;12.49;76.53;101039.16;5050036;28;19917;-28
2022/10/30 04:13:11;;;;;;;;;;;;;;;12.49;76.60;101040.91;5051666;28;19917;-28
2022/10/30 04:15:37;;;;;;;;;;;;;;;12.47;76.67;101040.06;5051330;28;19920;-28
2022/10/30 04:18:02;;;;;;;;;;;;;;;12.47;76.74;101045.38;5051158;28;19991;-28
2022/10/30 04:20:27;;;;;;;;;;;;;;;12.47;76.70;101056.81;5051218;28;19916;-28
2022/10/30 04:22:59;;;;;;;;;;;;;;;12.47;76.59;101061.25;5059103;28;19916;-28
2022/10/30 04:25:25;;;;;;;;;;;;;;;12.45;76.69;101062.09;5074963;28;20298;-27
2022/10/30 04:27:51;;;;;;;;;;;;;;;12.44;76.83;101056.88;5074667;28;20011;-28
2022/10/30 04:30:18;;;;;;;;;;;;;;;12.44;76.83;101055.06;5074919;28;20692;-28
2022/10/30 04:32:44;;;;;;;;;;;;;;;12.43;76.90;101055.97;5067887;28;19917;-27
2022/10/30 04:35:10;;;;;;;;;;;;;;;12.43;76.98;101055.09;5054898;28;19934;-27
2022/10/30 04:37:35;;;;;;;;;;;;;;;12.43;76.81;101057.72;5070626;28;19940;-28
2022/10/30 04:40:00;;;;;;;;;;;;;;;12.42;76.71;101059.53;5052968;28;19916;-28
2022/10/30 04:42:25;;;;;;;;;;;;;;;12.41;76.85;101065.69;5053811;28;20011;-27
2022/10/30 04:44:51;;;;;;;;;;;;;;;12.40;76.84;101061.28;5054354;28;20063;-27
2022/10/30 04:47:16;;;;;;;;;;;;;;;12.40;77.10;101063.94;5054824;28;20296;-27
2022/10/30 04:49:41;;;;;;;;;;;;;;;12.40;76.93;101061.28;5054222;28;19966;-28
2022/10/30 04:52:07;;;;;;;;;;;;;;;12.40;77.18;101066.59;5054913;28;19917;-28
2022/10/30 04:54:32;;;;;;;;;;;;;;;12.40;77.05;101077.16;5074410;28;19913;-28
2022/10/30 04:56:57;;;;;;;;;;;;;;;12.39;77.34;101061.31;5074335;28;20416;-28
2022/10/30 04:59:22;;;;;;;;;;;;;;;12.38;77.46;101065.75;5074264;28;19919;-27
2022/10/30 05:01:48;;;;;;;;;;;;;;;12.38;77.31;101072.78;5062314;28;19921;-28
2022/10/30 05:04:13;;;;;;;;;;;;;;;12.38;77.15;101065.75;5053940;28;20360;-28
2022/10/30 05:06:38;;;;;;;;;;;;;;;12.38;76.90;101070.13;5054133;28;20002;-28
2022/10/30 05:09:03;;;;;;;;;;;;;;;12.37;76.98;101066.59;5053902;28;20022;-28
2022/10/30 05:11:29;;;;;;;;;;;;;;;12.37;77.20;101056.03;5061635;28;19956;-28
2022/10/30 05:13:54;;;;;;;;;;;;;;;12.36;77.18;101061.34;5073002;28;20325;-28
2022/10/30 05:16:20;;;;;;;;;;;;;;;12.36;77.46;101059.56;5073931;28;20388;-27
2022/10/30 05:18:45;;;;;;;;;;;;;;;12.35;77.15;101060.47;5073795;28;20010;-28
2022/10/30 05:21:10;;;;;;;;;;;;;;;12.35;77.22;101060.47;5067590;28;19952;-28
2022/10/30 05:23:35;;;;;;;;;;;;;;;12.35;77.40;101063.13;5053864;28;19952;-28
2022/10/30 05:26:02;;;;;;;;;;;;;;;12.35;77.38;101071.06;5052948;28;20270;-28
2022/10/30 05:28:28;;;;;;;;;;;;;;;12.35;77.34;101073.69;5053534;28;19960;-28
2022/10/30 05:30:53;;;;;;;;;;;;;;;12.35;77.53;101073.69;5056473;28;19942;-28
2022/10/30 05:33:18;;;;;;;;;;;;;;;12.35;77.41;101070.16;5073684;28;20254;-28
2022/10/30 05:35:43;;;;;;;;;;;;;;;12.35;77.73;101079.00;5073949;28;20221;-27
2022/10/30 05:38:09;;;;;;;;;;;;;;;12.35;77.61;101068.41;5070618;28;19928;-27
2022/10/30 05:40:34;;;;;;;;;;;;;;;12.35;77.64;101072.81;5053876;28;19917;-28
2022/10/30 05:42:59;;;;;;;;;;;;;;;12.34;77.82;101074.56;5073260;28;19919;-28
2022/10/30 05:45:24;;;;;;;;;;;;;;;12.34;77.76;101076.34;5072408;28;19916;-28
2022/10/30 05:47:56;;;;;;;;;;;;;;;12.34;77.73;101082.50;5073211;28;19958;-28
2022/10/30 05:55:57;;;;;;;;;;;;;;;12.35;77.87;101083.41;5052208;28;19940;-29
2022/10/30 05:58:22;;;;;;;;;;;;;;;12.34;77.60;101071.94;5053864;28;19917;-29
2022/10/30 06:00:47;;;;;;;;;;;;;;;12.33;77.92;101075.47;5052906;28;19919;-29
2022/10/30 06:03:12;;;;;;;;;;;;;;;12.32;77.92;101074.63;5061057;28;19955;-29
2022/10/30 06:05:38;;;;;;;;;;;;;;;12.34;77.69;101071.94;5072710;28;19927;-29
2022/10/30 06:08:04;;;;;;;;;;;;;;;12.34;77.97;101071.94;5071484;28;19924;-26
2022/10/30 06:10:29;;;;;;;;;;;;;;;12.34;78.02;101082.50;5071204;28;19913;-27
2022/10/30 06:12:55;;;;;;;;;;;;;;;12.34;77.93;101087.78;5075526;28;19919;-26
2022/10/30 06:15:20;;;;;;;;;;;;;;;12.34;78.07;101081.66;5072759;28;19924;-26
2022/10/30 06:17:46;;;;;;;;;;;;;;;12.33;78.02;101080.75;5072396;28;19920;-26
2022/10/30 06:20:12;;;;;;;;;;;;;;;12.33;78.06;101080.75;5073196;28;19919;-27
2022/10/30 06:22:37;;;;;;;;;;;;;;;12.32;78.18;101085.19;5073252;28;20013;-26
2022/10/30 06:25:02;;;;;;;;;;;;;;;12.33;78.16;101086.06;5060446;28;19921;-26
2022/10/30 06:27:27;;;;;;;;;;;;;;;12.34;78.19;101086.94;5072430;28;20007;-27
2022/10/30 06:29:53;;;;;;;;;;;;;;;12.31;78.18;101086.06;5071838;28;19916;-27
2022/10/30 06:32:19;;;;;;;;;;;;;;;12.32;78.17;101089.59;5073523;28;19920;-27
2022/10/30 06:34:44;;;;;;;;;;;;;;;12.31;78.23;101088.72;5073736;28;19912;-27
2022/10/30 06:37:10;;;;;;;;;;;;;;;12.31;78.20;101088.72;5073486;28;19916;-27
2022/10/30 06:39:35;;;;;;;;;;;;;;;12.31;78.00;101086.06;5072631;28;19912;-27
2022/10/30 06:42:00;;;;;;;;;;;;;;;12.32;78.09;101084.31;5073225;28;20373;-27
2022/10/30 06:44:26;;;;;;;;;;;;;;;12.33;78.13;101091.34;5090139;28;20390;-27
2022/10/30 06:46:52;;;;;;;;;;;;;;;12.32;77.86;101097.53;5072791;28;19978;-27
2022/10/30 06:49:17;;;;;;;;;;;;;;;12.33;78.14;101091.34;5070812;28;20436;-27
2022/10/30 06:51:42;;;;;;;;;;;;;;;12.33;78.13;101091.34;5072639;28;19920;-27
2022/10/30 06:54:07;;;;;;;;;;;;;;;12.32;77.98;101090.47;5071930;28;19927;-27
2022/10/30 06:56:33;;;;;;;;;;;;;;;12.32;78.22;101095.78;5070443;28;20436;-27
2022/10/30 06:58:58;;;;;;;;;;;;;;;12.34;78.25;101098.38;5072274;28;20296;-27
2022/10/30 07:01:23;;;;;;;;;;;;;;;12.33;78.06;101101.91;5071582;28;20296;-27
2022/10/30 07:03:48;;;;;;;;;;;;;;;12.34;77.87;101102.81;5071877;28;20369;-27
2022/10/30 07:06:13;;;;;;;;;;;;;;;12.32;77.88;101106.34;5071149;28;20275;-27
2022/10/30 07:08:39;;;;;;;;;;;;;;;12.35;77.87;101109.84;5072055;28;20246;-27
2022/10/30 07:11:04;;;;;;;;;;;;;;;12.35;78.15;101105.44;5071778;28;19970;-27
2022/10/30 07:13:29;;;;;;;;;;;;;;;12.34;78.13;101114.25;5072515;28;19966;-27
2022/10/30 07:15:55;;;;;;;;;;;;;;;12.34;77.86;101114.25;5073103;28;20380;-30
2022/10/30 07:18:22;;;;;;;;;;;;;;;12.36;77.94;101122.16;5073266;28;19913;-29
2022/10/30 07:20:57;;;;;;;;;;;;;;;12.36;77.87;101120.41;5072020;28;20285;-29
2022/10/30 07:23:23;;;;;;;;;;;;;;;12.35;77.70;101113.38;5071321;28;19962;-29
2022/10/30 07:25:51;;;;;;;;;;;;;;;12.34;77.81;101119.53;5072621;28;20397;-29
2022/10/30 07:28:18;;;;;;;;;;;;;;;12.36;78.03;101123.06;5072908;28;19923;-29
2022/10/30 07:30:43;;;;;;;;;;;;;;;12.36;77.84;101122.16;5087616;28;19917;-29
2022/10/30 07:33:09;;;;;;;;;;;;;;;12.37;77.86;101124.81;5072683;28;20393;-29
2022/10/30 07:35:35;;;;;;;;;;;;;;;12.37;77.75;101124.81;5071174;28;19912;-29
2022/10/30 07:38:02;;;;;;;;;;;;;;;12.39;78.07;101128.31;5070942;28;19912;-29
2022/10/30 07:40:28;;;;;;;;;;;;;;;12.41;78.12;101126.53;5085495;28;19975;-29
2022/10/30 07:42:57;;;;;;;;;;;;;;;12.41;77.92;101131.81;5071828;28;19948;-29
2022/10/30 07:45:22;;;;;;;;;;;;;;;12.42;78.17;101128.31;5072094;28;20411;-29
2022/10/30 07:47:47;;;;;;;;;;;;;;;12.45;78.22;101133.53;5072295;28;19912;-29
2022/10/30 07:50:16;;;;;;;;;;;;;;;12.48;78.06;101126.47;5071526;28;20058;-29
2022/10/30 07:52:48;;;;;;;;;;;;;;;12.50;78.17;101130.84;5070408;28;19916;-29
2022/10/30 07:55:17;;;;;;;;;;;;;;;12.52;78.15;101129.09;5072205;28;19991;-29
2022/10/30 07:57:42;;;;;;;;;;;;;;;12.57;78.06;101123.72;5071983;28;19912;-29
2022/10/30 08:00:10;;;;;;;;;;;;;;;12.61;78.39;101130.78;5088984;28;20393;-29
2022/10/30 08:02:35;;;;;;;;;;;;;;;12.65;78.21;101142.19;5074378;28;20377;-29
2022/10/30 08:05:00;;;;;;;;;;;;;;;12.69;78.10;101136.84;5074375;28;19924;-28
2022/10/30 08:07:32;;;;;;;;;;;;;;;12.74;78.01;101130.63;5074310;28;20019;-28
2022/10/30 08:09:58;;;;;;;;;;;;;;;12.77;78.00;101130.59;5072611;28;19919;-29
2022/10/30 08:12:23;;;;;;;;;;;;;;;12.83;78.08;101134.06;5072153;28;19916;-29
2022/10/30 08:14:49;;;;;;;;;;;;;;;12.87;77.82;101134.88;5075812;28;19917;-28
2022/10/30 08:17:14;;;;;;;;;;;;;;;12.92;77.63;101140.13;5075143;28;19913;-28
2022/10/30 08:19:39;;;;;;;;;;;;;;;12.96;77.64;101134.78;5075397;28;19917;-28
2022/10/30 08:22:04;;;;;;;;;;;;;;;13.01;77.65;101132.06;5057653;28;19915;-28
2022/10/30 08:24:30;;;;;;;;;;;;;;;13.07;77.67;101141.72;5074754;28;20273;-29
2022/10/30 08:26:55;;;;;;;;;;;;;;;13.12;77.57;101139.00;5074429;28;20015;-28
2022/10/30 08:29:20;;;;;;;;;;;;;;;13.16;77.57;101138.97;5075427;28;20385;-28
2022/10/30 08:31:49;;;;;;;;;;;;;;;13.21;77.69;101136.25;5074716;28;20380;-28
2022/10/30 08:34:14;;;;;;;;;;;;;;;13.26;77.71;101133.53;5074069;28;19956;-28
2022/10/30 08:36:42;;;;;;;;;;;;;;;13.31;77.76;101135.22;5075248;28;20037;-29
2022/10/30 08:39:07;;;;;;;;;;;;;;;13.37;77.77;101136.06;5074991;28;20286;-28
2022/10/30 08:41:33;;;;;;;;;;;;;;;13.41;77.75;101135.13;5075360;28;19951;-28
2022/10/30 08:43:58;;;;;;;;;;;;;;;13.46;77.86;101120.03;5073277;28;20376;-28
2022/10/30 08:46:23;;;;;;;;;;;;;;;13.53;77.89;101118.19;5073474;28;20005;-28
2022/10/30 08:48:49;;;;;;;;;;;;;;;13.60;78.24;101127.81;5075145;28;20287;-28
2022/10/30 08:51:14;;;;;;;;;;;;;;;13.67;78.54;101126.81;5075165;28;19951;-28
2022/10/30 08:53:40;;;;;;;;;;;;;;;13.73;78.73;101121.44;5073449;28;19916;-29
2022/10/30 08:56:05;;;;;;;;;;;;;;;13.81;78.86;101128.41;5074103;28;19916;-28
2022/10/30 08:58:30;;;;;;;;;;;;;;;13.87;78.78;101120.34;5076327;28;20288;-28
2022/10/30 09:00:56;;;;;;;;;;;;;;;13.94;78.97;101123.78;5075787;28;19918;-28
2022/10/30 09:03:21;;;;;;;;;;;;;;;14.02;78.93;101113.03;5074624;28;19917;-28
2022/10/30 09:05:47;;;;;;;;;;;;;;;14.08;79.11;101112.94;5075143;28;19925;-28
2022/10/30 09:08:12;;;;;;;;;;;;;;;14.15;79.06;101116.38;5074760;28;19917;-28
2022/10/30 09:10:38;;;;;;;;;;;;;;;14.22;79.24;101118.00;5072475;28;19959;-28
2022/10/30 09:13:03;;;;;;;;;;;;;;;14.32;79.99;101118.72;5072770;28;19919;-28
2022/10/30 09:15:29;;;;;;;;;;;;;;;14.39;79.92;101112.41;5073980;28;19913;-28
2022/10/30 09:17:55;;;;;;;;;;;;;;;14.48;79.86;101124.66;5073503;28;19916;-28
2022/10/30 09:20:20;;;;;;;;;;;;;;;14.57;80.24;101118.28;5069959;28;20404;-28
2022/10/30 09:22:46;;;;;;;;;;;;;;;14.63;80.02;101112.84;5054489;28;19912;-28
2022/10/30 09:25:11;;;;;;;;;;;;;;;14.72;80.66;101112.69;5055622;28;20366;-28
2022/10/30 09:27:37;;;;;;;;;;;;;;;14.83;81.62;101104.53;5055605;28;19995;-28
2022/10/30 09:30:03;;;;;;;;;;;;;;;14.93;81.61;101114.97;5071551;28;20055;-28
2022/10/30 09:32:28;;;;;;;;;;;;;;;15.03;82.60;101116.53;5072913;28;20368;-28
2022/10/30 09:34:54;;;;;;;;;;;;;;;15.11;82.14;101119.03;5072379;28;20431;-28
2022/10/30 09:37:19;;;;;;;;;;;;;;;15.19;81.48;101114.44;5073727;28;19912;-28
2022/10/30 09:39:45;;;;;;;;;;;;;;;15.26;81.34;101118.72;5072674;28;19913;-28
2022/10/30 09:42:10;;;;;;;;;;;;;;;15.34;80.88;101123.84;5073013;28;19958;-28
2022/10/30 09:44:51;;;;;;;;;;;;;;;15.46;81.81;101128.03;5074127;28;19959;-29
2022/10/30 09:47:35;;;;;;;;;;;;;;;15.56;81.58;101119.81;5074280;28;20003;-28
2022/10/30 09:50:02;;;;;;;;;;;;;;;15.63;81.11;101119.66;5073267;28;19967;-29
2022/10/30 09:52:28;;;;;;;;;;;;;;;15.70;80.86;101123.03;5072302;28;19920;-28
2022/10/30 09:55:12;;;;;;;;;;;;;;;15.82;81.12;101115.69;5073533;28;19987;-28
2022/10/30 09:57:57;;;;;;;;;;;;;;;15.90;81.21;101114.59;5073267;28;19943;-29
2022/10/30 10:00:23;;;;;;;;;;;;;;;16.02;81.70;101112.56;5071467;28;19927;-28
2022/10/30 10:03:03;;;;;;;;;;;;;;;16.12;81.78;101121.19;5072427;28;19916;-29
2022/10/30 10:05:31;;;;;;;;;;;;;;;16.21;81.34;101117.44;5071444;28;19920;-28
2022/10/30 10:07:58;;;;;;;;;;;;;;;16.28;81.13;101124.34;5071795;28;20282;-28
2022/10/30 10:10:26;;;;;;;;;;;;;;;16.35;80.80;101115.31;5071722;28;20262;-29
2022/10/30 10:12:52;;;;;;;;;;;;;;;16.41;80.55;101120.44;5071694;28;19916;-30
2022/10/30 10:15:36;;;;;;;;;;;;;;;16.48;80.31;101115.84;5087289;28;19928;-28
2022/10/30 10:18:03;;;;;;;;;;;;;;;16.57;80.36;101124.50;5072904;28;19916;-28
2022/10/30 10:20:41;;;;;;;;;;;;;;;16.62;80.41;101119.91;5071250;28;20385;-28
2022/10/30 10:23:17;;;;;;;;;;;;;;;16.67;80.49;101125.97;5070468;28;19916;-28
2022/10/30 10:25:43;;;;;;;;;;;;;;;16.76;80.49;101130.19;5072144;28;20450;-28
2022/10/30 10:28:32;;;;;;;;;;;;;;;16.84;80.76;101121.97;5087725;28;19948;-29
2022/10/30 10:31:17;;;;;;;;;;;;;;;16.94;81.15;101115.44;5052024;28;20381;-28
2022/10/30 10:34:01;;;;;;;;;;;;;;;17.01;80.49;101111.69;5051441;28;20293;-28
2022/10/30 10:36:30;;;;;;;;;;;;;;;17.10;80.28;101112.41;5051127;28;19948;-29
2022/10/30 10:38:58;;;;;;;;;;;;;;;17.18;80.49;101115.72;5059727;28;19916;-29
2022/10/30 10:41:26;;;;;;;;;;;;;;;17.27;80.61;101112.75;5070709;28;20017;-28
2022/10/30 10:44:10;;;;;;;;;;;;;;;17.33;80.31;101098.38;5071878;28;19920;-29
2022/10/30 10:46:36;;;;;;;;;;;;;;;17.40;80.28;101105.25;5072738;28;20007;-28
2022/10/30 10:49:04;;;;;;;;;;;;;;;17.48;80.03;101101.47;5072376;28;19996;-29
2022/10/30 10:51:43;;;;;;;;;;;;;;;17.55;79.70;101103.88;5071457;28;19927;-28
2022/10/30 10:54:14;;;;;;;;;;;;;;;17.63;79.52;101100.09;5070984;28;20011;-28
2022/10/30 10:56:40;;;;;;;;;;;;;;;17.69;79.37;101089.25;5072138;28;19916;-28
2022/10/30 10:59:11;;;;;;;;;;;;;;;17.75;79.59;101097.06;5070769;28;19921;-28
2022/10/30 11:01:37;;;;;;;;;;;;;;;17.84;79.65;101087.88;5071807;28;20325;-29
2022/10/30 11:04:04;;;;;;;;;;;;;;;17.88;79.38;101086.88;5072053;28;19963;-29
2022/10/30 11:06:34;;;;;;;;;;;;;;;17.93;79.43;101092.91;5070824;28;19913;-29
2022/10/30 11:09:15;;;;;;;;;;;;;;;18.03;79.58;101092.59;5070456;28;20421;-29
2022/10/30 11:11:42;;;;;;;;;;;;;;;18.06;79.28;101082.69;5071370;28;19916;-28
2022/10/30 11:14:11;;;;;;;;;;;;;;;18.14;79.41;101084.28;5071640;28;20010;-29
2022/10/30 11:16:47;;;;;;;;;;;;;;;18.21;79.43;101088.47;5071277;28;19939;-28
2022/10/30 11:19:13;;;;;;;;;;;;;;;18.27;79.11;101082.06;5070764;28;19912;-28
2022/10/30 11:21:40;;;;;;;;;;;;;;;18.34;79.11;101086.22;5071260;28;19923;-29
2022/10/30 11:24:29;;;;;;;;;;;;;;;18.40;78.96;101091.34;5071875;28;19959;-28
2022/10/30 11:26:55;;;;;;;;;;;;;;;18.47;78.63;101086.66;5064378;28;19921;-28
2022/10/30 11:29:28;;;;;;;;;;;;;;;18.54;79.20;101082.84;5071752;28;19925;-28
2022/10/30 11:32:03;;;;;;;;;;;;;;;18.61;79.07;101090.66;5071591;28;20078;-28
2022/10/30 11:34:28;;;;;;;;;;;;;;;18.68;79.00;101079.66;5074424;28;20385;-28
2022/10/30 11:36:54;;;;;;;;;;;;;;;18.73;78.67;101082.19;5075900;28;19953;-28
2022/10/30 11:39:21;;;;;;;;;;;;;;;18.79;78.27;101081.06;5076135;28;20002;-28
2022/10/30 11:41:49;;;;;;;;;;;;;;;18.86;78.36;101093.28;5075362;28;19925;-28
2022/10/30 11:44:14;;;;;;;;;;;;;;;18.92;78.47;101079.69;5075606;28;19920;-29
2022/10/30 11:46:40;;;;;;;;;;;;;;;18.96;78.28;101083.13;5074503;28;19919;-28
2022/10/30 11:49:05;;;;;;;;;;;;;;;19.02;78.19;101079.34;5074696;28;19916;-28
2022/10/30 11:51:35;;;;;;;;;;;;;;;19.06;77.85;101076.53;5074346;28;19912;-29
2022/10/30 11:54:01;;;;;;;;;;;;;;;19.10;78.00;101069.25;5075387;28;19917;-29
2022/10/30 11:56:26;;;;;;;;;;;;;;;19.15;77.82;101071.75;5075836;28;19924;-28
2022/10/30 11:58:52;;;;;;;;;;;;;;;19.21;77.71;101061.69;5075303;28;19922;-29
2022/10/30 12:01:21;;;;;;;;;;;;;;;19.28;77.81;101067.69;5075494;28;19916;-28
2022/10/30 12:03:46;;;;;;;;;;;;;;;19.33;77.73;101068.34;5075118;28;19916;-28
2022/10/30 12:06:15;;;;;;;;;;;;;;;19.39;77.63;101063.69;5074277;28;19919;-28
2022/10/30 12:08:40;;;;;;;;;;;;;;;19.44;77.50;101061.72;5075752;28;19956;-28
2022/10/30 12:11:06;;;;;;;;;;;;;;;19.51;77.69;101065.00;5075088;28;19944;-28
2022/10/30 12:13:38;;;;;;;;;;;;;;;19.58;77.75;101062.00;5073818;28;19995;-28
2022/10/30 12:16:04;;;;;;;;;;;;;;;19.64;77.73;101071.56;5074953;28;19925;-28
2022/10/30 12:18:29;;;;;;;;;;;;;;;19.71;77.53;101072.22;5075114;28;20007;-28
2022/10/30 12:20:55;;;;;;;;;;;;;;;19.77;77.89;101066.59;5073322;28;19913;-28
2022/10/30 12:23:25;;;;;;;;;;;;;;;19.85;77.83;101067.13;5074890;28;20395;-28
2022/10/30 12:25:51;;;;;;;;;;;;;;;19.91;77.95;101065.16;5075023;28;19917;-28
2022/10/30 12:28:18;;;;;;;;;;;;;;;19.99;77.79;101060.34;5074804;28;20365;-28
2022/10/30 12:30:49;;;;;;;;;;;;;;;20.05;77.93;101062.81;5074270;28;19917;-28
2022/10/30 12:33:16;;;;;;;;;;;;;;;20.15;77.79;101062.38;5074896;28;19920;-28
2022/10/30 12:35:43;;;;;;;;;;;;;;;20.20;77.61;101060.38;5074527;28;19912;-28
2022/10/30 12:38:12;;;;;;;;;;;;;;;20.27;77.39;101061.84;5073468;28;20395;-28
2022/10/30 12:40:39;;;;;;;;;;;;;;;20.33;77.04;101061.59;5072718;28;19938;-28